Time;durP1;ratioP1;P1;durP2;ratioP2;P2;SDS_P1;SDS_P2;PMS_P1;PMS_P2;Temp;Humidity;BMP_temperature;BMP_pressure;BME280_temperature;BME280_humidity;BME280_pressure;Samples;Min_cycle;Max_cycle;Signal;HPM_P1;HPM_P2
2022/02/15 00:02:02;;;;;;;7.07;1.25;;;;;;;-142.75;100.00;77290.81;5055311;28;20325;-71
2022/02/15 00:04:27;;;;;;;6.32;1.65;;;;;;;-142.75;100.00;77290.81;5058436;28;20114;-66
2022/02/15 00:06:52;;;;;;;6.43;1.50;;;;;;;-142.75;100.00;77282.94;5055266;28;20047;-69
2022/02/15 00:09:18;;;;;;;6.15;1.30;;;;;;;-142.75;100.00;77282.94;5064974;28;20436;-67
2022/02/15 00:11:43;;;;;;;6.40;1.02;;;;;;;-142.75;100.00;77282.94;5060206;28;20391;-68
2022/02/15 00:14:08;;;;;;;4.15;1.38;;;;;;;-142.75;100.00;77290.81;5064028;28;20025;-69
2022/02/15 00:16:34;;;;;;;5.15;1.42;;;;;;;-142.75;100.00;77296.72;5061190;28;20036;-69
2022/02/15 00:18:59;;;;;;;6.38;1.52;;;;;;;-142.75;100.00;77288.84;5057970;28;20029;-68
2022/02/15 00:21:24;;;;;;;8.65;1.20;;;;;;;-142.75;100.00;77288.84;5061896;28;20108;-68
2022/02/15 00:23:50;;;;;;;5.00;1.48;;;;;;;-142.75;100.00;77282.94;5057201;28;20078;-69
2022/02/15 00:26:15;;;;;;;5.43;1.05;;;;;;;-142.75;100.00;77286.88;5062020;28;20067;-72
2022/02/15 00:28:40;;;;;;;5.93;1.52;;;;;;;-142.75;100.00;77277.03;5056504;28;20639;-69
2022/02/15 00:31:06;;;;;;;7.20;1.10;;;;;;;-142.75;100.00;77275.06;5060842;28;20174;-69
2022/02/15 00:33:31;;;;;;;4.22;1.40;;;;;;;-142.75;100.00;77302.63;5065001;28;20744;-69
2022/02/15 00:35:57;;;;;;;6.83;1.47;;;;;;;-142.75;100.00;77304.59;5056376;28;20025;-72
2022/02/15 00:38:23;;;;;;;7.15;1.33;;;;;;;-142.75;100.00;77302.63;5053358;28;20375;-69
2022/02/15 00:40:48;;;;;;;8.23;1.25;;;;;;;-142.75;100.00;77300.66;5063177;28;20047;-68
2022/02/15 00:43:15;;;;;;;8.73;1.45;;;;;;;-142.75;100.00;77304.59;5060114;28;20033;-68
2022/02/15 00:45:40;;;;;;;9.83;1.23;;;;;;;-142.75;100.00;77308.53;5065673;28;20597;-68
2022/02/15 00:48:05;;;;;;;7.22;1.13;;;;;;;-142.75;100.00;77310.50;5054315;28;20115;-68
2022/02/15 00:50:31;;;;;;;7.13;1.30;;;;;;;-142.75;100.00;77306.56;5057610;28;20027;-68
2022/02/15 00:52:56;;;;;;;5.80;1.10;;;;;;;-142.75;100.00;77304.59;5055098;28;20756;-67
2022/02/15 00:55:21;;;;;;;10.15;1.55;;;;;;;-142.75;100.00;77310.50;5060182;28;20025;-68
2022/02/15 00:57:46;;;;;;;3.07;0.87;;;;;;;-142.75;100.00;77322.31;5062232;28;20035;-68
2022/02/15 01:00:15;;;;;;;5.87;1.20;;;;;;;-142.75;100.00;77322.31;5061874;28;20286;-69
2022/02/15 01:02:41;;;;;;;3.60;1.43;;;;;;;-142.75;100.00;77332.16;5058991;28;20096;-68
2022/02/15 01:05:07;;;;;;;6.50;1.42;;;;;;;-142.75;100.00;77338.06;5065680;28;20151;-69
2022/02/15 01:07:32;;;;;;;;;;;;;;;-142.75;100.00;77338.06;5064710;28;20126;-68
2022/02/15 01:09:58;;;;;;;4.87;1.10;;;;;;;-142.75;100.00;77351.84;5058142;28;20286;-68
2022/02/15 01:12:24;;;;;;;6.72;1.05;;;;;;;-142.75;100.00;77357.75;5061986;28;20028;-68
2022/02/15 01:14:49;;;;;;;7.63;1.73;;;;;;;-142.75;100.00;77361.69;5067542;28;20031;-69
2022/02/15 01:17:15;;;;;;;10.13;1.92;;;;;;;-142.75;100.00;77367.59;5062315;28;20060;-71
2022/02/15 01:19:40;;;;;;;8.25;1.88;;;;;;;-142.75;100.00;77385.31;5059727;28;20071;-68
2022/02/15 01:22:05;;;;;;;6.35;1.60;;;;;;;-142.75;100.00;77373.50;5068128;28;20052;-68
2022/02/15 01:24:31;;;;;;;5.80;2.13;;;;;;;-142.75;100.00;77371.53;5062055;28;20082;-68
2022/02/15 01:26:57;;;;;;;6.57;1.70;;;;;;;-142.75;100.00;77383.34;5059438;28;20806;-68
2022/02/15 01:29:23;;;;;;;10.48;2.17;;;;;;;-142.75;100.00;77373.50;5063117;28;20029;-68
2022/02/15 01:31:49;;;;;;;8.57;1.95;;;;;;;-142.75;100.00;77369.56;5067207;28;20020;-68
2022/02/15 01:34:15;;;;;;;5.50;1.90;;;;;;;-142.75;100.00;77369.56;5056634;28;20406;-71
2022/02/15 01:36:40;;;;;;;5.93;1.90;;;;;;;-142.75;100.00;77369.56;5057570;28;20041;-68
2022/02/15 01:39:05;;;;;;;7.45;2.20;;;;;;;-142.75;100.00;77363.66;5060341;28;20528;-68
2022/02/15 01:41:31;;;;;;;6.57;1.93;;;;;;;-142.75;100.00;77357.75;5063029;28;20056;-68
2022/02/15 01:43:56;;;;;;;9.07;2.53;;;;;;;-142.75;100.00;77359.72;5060965;28;20699;-68
2022/02/15 01:46:21;;;;;;;8.32;2.30;;;;;;;-142.75;100.00;77361.69;5059598;28;20021;-68
2022/02/15 01:48:47;;;;;;;6.63;2.67;;;;;;;-142.75;100.00;77359.72;5060318;28;20043;-68
2022/02/15 01:51:13;;;;;;;9.98;2.45;;;;;;;-142.75;100.00;77365.63;5061258;28;20127;-69
2022/02/15 01:53:39;;;;;;;7.10;2.83;;;;;;;-142.75;100.00;77365.63;5064419;28;20074;-68
2022/02/15 01:56:06;;;;;;;10.10;2.70;;;;;;;-142.75;100.00;77367.59;5058183;28;20029;-68
2022/02/15 01:58:32;;;;;;;9.50;2.50;;;;;;;-142.75;100.00;77369.56;5055601;28;20035;-68
2022/02/15 02:00:57;;;;;;;8.75;2.65;;;;;;;-142.75;100.00;77361.69;5063145;28;20058;-68
2022/02/15 02:03:22;;;;;;;5.82;2.13;;;;;;;-142.75;100.00;77365.63;5062275;28;20021;-68
2022/02/15 02:05:48;;;;;;;4.97;2.33;;;;;;;-142.75;100.00;77361.69;5064229;28;20039;-68
2022/02/15 02:08:15;;;;;;;6.75;2.60;;;;;;;-142.75;100.00;77353.81;5049787;28;20025;-71
2022/02/15 02:10:40;;;;;;;7.80;2.70;;;;;;;-142.75;100.00;77349.88;5057592;28;20616;-68
2022/02/15 02:13:06;;;;;;;5.90;2.78;;;;;;;-142.75;100.00;77349.88;5060215;28;20154;-68
2022/02/15 02:15:31;;;;;;;9.30;2.57;;;;;;;-142.75;100.00;77351.84;5058878;28;20037;-70
2022/02/15 02:17:58;;;;;;;5.67;2.10;;;;;;;-142.75;100.00;77340.03;5048331;28;20707;-68
2022/02/15 02:20:23;;;;;;;7.80;2.30;;;;;;;-142.75;100.00;77334.13;5058712;28;20024;-69
2022/02/15 02:22:49;;;;;;;6.80;2.55;;;;;;;-142.75;100.00;77334.13;5066604;28;20029;-68
2022/02/15 02:25:17;;;;;;;6.38;2.53;;;;;;;-142.75;100.00;77338.06;5064106;28;20524;-69
2022/02/15 02:27:43;;;;;;;9.43;3.00;;;;;;;-142.75;100.00;77336.09;5052926;28;20040;-68
2022/02/15 02:30:09;;;;;;;;;;;;;;;-142.75;100.00;77334.13;5059949;28;20557;-68
2022/02/15 02:32:35;;;;;;;10.23;3.00;;;;;;;-142.75;100.00;77338.06;5067821;28;19999;-71
2022/02/15 02:35:05;;;;;;;6.15;2.65;;;;;;;-142.75;100.00;77332.16;5062004;28;20025;-68
2022/02/15 02:37:31;;;;;;;9.30;3.37;;;;;;;-142.75;100.00;77334.13;5056640;28;20025;-68
2022/02/15 02:39:56;;;;;;;10.05;3.20;;;;;;;-142.75;100.00;77359.72;5063177;28;20024;-68
2022/02/15 02:42:26;;;;;;;7.95;2.88;;;;;;;-142.75;100.00;77347.91;5069503;28;20036;-68
2022/02/15 02:44:56;;;;;;;10.50;3.57;;;;;;;-142.75;100.00;77334.13;5051877;28;20032;-68
2022/02/15 02:47:22;;;;;;;8.43;3.10;;;;;;;-142.75;100.00;77326.25;5052472;28;20112;-67
2022/02/15 02:49:47;;;;;;;7.50;3.30;;;;;;;-142.75;100.00;77326.25;5053085;28;20120;-68
2022/02/15 02:52:12;;;;;;;9.23;3.50;;;;;;;-142.75;100.00;77324.28;5065689;28;20032;-69
2022/02/15 02:54:40;;;;;;;9.57;3.20;;;;;;;-142.75;100.00;77320.34;5056522;28;20466;-70
2022/02/15 02:57:06;;;;;;;7.53;3.40;;;;;;;-142.75;100.00;77314.44;5057262;28;20394;-68
2022/02/15 02:59:33;;;;;;;9.40;3.20;;;;;;;-142.75;100.00;77320.34;5054672;28;20102;-69
2022/02/15 03:01:58;;;;;;;;;;;;;;;-142.75;100.00;77322.31;5058413;28;20029;-68
2022/02/15 03:04:24;;;;;;;7.40;3.00;;;;;;;-142.75;100.00;77328.22;5054723;28;19912;-68
2022/02/15 03:06:49;;;;;;;15.60;3.13;;;;;;;-142.75;100.00;77330.19;5056110;28;20503;-68
2022/02/15 03:09:15;;;;;;;9.40;3.22;;;;;;;-142.75;100.00;77330.19;5054870;28;20390;-69
2022/02/15 03:11:40;;;;;;;11.95;3.15;;;;;;;-142.75;100.00;77328.22;5067170;28;20397;-69
2022/02/15 03:14:06;;;;;;;12.90;3.50;;;;;;;-142.75;100.00;77308.53;5067346;28;20039;-69
2022/02/15 03:16:32;;;;;;;11.45;4.03;;;;;;;-142.75;100.00;77310.50;5063021;28;20278;-71
2022/02/15 03:18:58;;;;;;;10.67;3.60;;;;;;;-142.75;100.00;77316.41;5060049;28;20111;-69
2022/02/15 03:21:24;;;;;;;13.65;3.40;;;;;;;-142.75;100.00;77318.38;5059578;28;20096;-71
2022/02/15 03:23:49;;;;;;;6.25;3.13;;;;;;;-142.75;100.00;77324.28;5053154;28;20025;-69
2022/02/15 03:26:15;;;;;;;15.13;4.43;;;;;;;-142.75;100.00;77316.41;5054791;28;20078;-68
2022/02/15 03:28:40;;;;;;;11.10;4.15;;;;;;;-142.75;100.00;77326.25;5058226;28;20033;-69
2022/02/15 03:31:06;;;;;;;7.18;3.78;;;;;;;-142.75;100.00;77326.25;5055331;28;20096;-69
2022/02/15 03:33:32;;;;;;;10.55;4.15;;;;;;;-142.75;100.00;77336.09;5071564;28;20063;-68
2022/02/15 03:35:59;;;;;;;12.38;3.90;;;;;;;-142.75;100.00;77340.03;5065941;28;20500;-68
2022/02/15 03:38:24;;;;;;;10.10;3.90;;;;;;;-142.75;100.00;77349.88;5058898;28;20062;-68
2022/02/15 03:43:34;;;;;;;9.57;3.57;;;;;;;-142.75;100.00;77326.25;5066888;28;20309;-69
2022/02/15 03:45:59;;;;;;;15.60;3.83;;;;;;;-142.75;100.00;77332.16;5069543;28;20478;-71
2022/02/15 03:48:25;;;;;;;9.82;3.88;;;;;;;-142.75;100.00;77332.16;5090012;22;20049;-67
2022/02/15 03:50:50;;;;;;;10.15;3.80;;;;;;;-142.75;100.00;77330.19;5070982;28;20028;-68
2022/02/15 03:53:15;;;;;;;9.25;3.63;;;;;;;-142.75;100.00;77324.28;5072806;28;20024;-68
2022/02/15 03:55:44;;;;;;;12.15;3.60;;;;;;;-142.75;100.00;77353.81;5072359;28;20036;-68
2022/02/15 03:58:10;;;;;;;8.37;3.67;;;;;;;-142.75;100.00;77349.88;5071912;28;20044;-68
2022/02/15 04:00:37;;;;;;;9.23;3.50;;;;;;;-142.75;100.00;77359.72;5070958;28;20074;-68
2022/02/15 04:03:02;;;;;;;11.60;3.60;;;;;;;-142.75;100.00;77353.81;5072188;28;20031;-68
2022/02/15 04:05:28;;;;;;;11.68;3.85;;;;;;;-142.75;100.00;77357.75;5071127;28;22107;-68
2022/02/15 04:07:53;;;;;;;9.90;3.55;;;;;;;-142.75;100.00;77361.69;5071648;28;20490;-67
2022/02/15 04:10:19;;;;;;;14.77;4.53;;;;;;;-142.75;100.00;77373.50;5072202;28;20029;-68
2022/02/15 04:12:44;;;;;;;;;;;;;;;-142.75;100.00;77357.75;5072689;28;20435;-67
2022/02/15 04:15:10;;;;;;;8.97;4.20;;;;;;;-142.75;100.00;77365.63;5072013;28;19919;-68
2022/02/15 04:17:35;;;;;;;14.75;5.10;;;;;;;-142.75;100.00;77375.47;5050619;28;20025;-68
2022/02/15 04:20:02;;;;;;;10.43;4.57;;;;;;;-142.75;100.00;77373.50;5050100;28;20112;-67
2022/02/15 04:22:27;;;;;;;17.40;5.50;;;;;;;-142.75;100.00;77377.44;5052507;28;20029;-68
2022/02/15 04:24:52;;;;;;;19.48;4.60;;;;;;;-142.75;100.00;77385.31;5051827;28;20106;-68
2022/02/15 04:27:18;;;;;;;11.07;4.60;;;;;;;-142.75;100.00;77387.28;5051741;28;20024;-68
2022/02/15 04:29:43;;;;;;;14.40;4.30;;;;;;;-142.75;100.00;77391.22;5051664;28;20021;-67
2022/02/15 04:32:09;;;;;;;14.73;4.35;;;;;;;-142.75;100.00;77389.25;5051786;28;20029;-67
2022/02/15 04:34:34;;;;;;;11.13;3.55;;;;;;;-142.75;100.00;77397.13;5051692;28;20016;-68
2022/02/15 04:37:00;;;;;;;12.32;3.33;;;;;;;-142.75;100.00;77395.16;5051818;28;20032;-68
2022/02/15 04:39:25;;;;;;;21.42;4.07;;;;;;;-142.75;100.00;77391.22;5051357;28;20029;-67
2022/02/15 04:41:50;;;;;;;15.20;3.47;;;;;;;-142.75;100.00;77399.09;5051547;28;20059;-68
2022/02/15 04:44:15;;;;;;;13.23;3.35;;;;;;;-142.75;100.00;77399.09;5051421;28;20298;-68
2022/02/15 04:46:41;;;;;;;18.10;3.70;;;;;;;-142.75;100.00;77395.16;5051608;28;20068;-68
2022/02/15 04:49:06;;;;;;;15.02;4.15;;;;;;;-142.75;100.00;77401.06;5051061;28;20271;-68
2022/02/15 04:51:31;;;;;;;10.45;3.78;;;;;;;-142.75;100.00;77401.06;5060304;28;20103;-68
2022/02/15 04:53:58;;;;;;;16.27;4.13;;;;;;;-142.75;100.00;77393.19;5070159;28;20020;-69
2022/02/15 04:56:23;;;;;;;;;;;;;;;-142.75;100.00;77397.13;5071632;28;20028;-67
2022/02/15 04:58:48;;;;;;;17.97;4.07;;;;;;;-142.75;100.00;77391.22;5071062;28;19919;-68
2022/02/15 05:01:14;;;;;;;17.03;4.00;;;;;;;-142.75;100.00;77391.22;5071016;28;20022;-68
2022/02/15 05:03:40;;;;;;;;;;;;;;;-142.75;100.00;77399.09;5071545;28;20016;-68
2022/02/15 05:06:05;;;;;;;9.73;3.57;;;;;;;-142.75;100.00;77393.19;5071076;28;19916;-68
2022/02/15 05:08:30;;;;;;;11.80;2.97;;;;;;;-142.75;100.00;77408.94;5070678;28;20028;-68
2022/02/15 05:10:56;;;;;;;12.15;3.42;;;;;;;-142.75;100.00;77412.88;5070694;28;20432;-68
2022/02/15 05:13:21;;;;;;;7.47;2.58;;;;;;;-142.75;100.00;77424.69;5070955;28;20020;-68
2022/02/15 05:15:46;;;;;;;17.33;3.40;;;;;;;-142.75;100.00;77418.78;5069637;28;20078;-68
2022/02/15 05:18:12;;;;;;;11.67;3.27;;;;;;;-142.75;100.00;77410.91;5066605;28;20410;-68
2022/02/15 05:20:37;;;;;;;13.82;4.18;;;;;;;-142.75;100.00;77416.81;5050850;28;20029;-67
2022/02/15 05:23:03;;;;;;;9.43;2.22;;;;;;;-142.75;100.00;77426.66;5051649;28;20048;-68
2022/02/15 05:25:28;;;;;;;12.95;2.40;;;;;;;-142.75;100.00;77428.63;5050755;28;20029;-68
2022/02/15 05:27:55;;;;;;;11.10;2.15;;;;;;;-142.75;100.00;77418.78;5050434;28;20202;-68
2022/02/15 05:30:20;;;;;;;16.50;2.80;;;;;;;-142.75;100.00;77428.63;5050824;28;20657;-68
2022/02/15 05:32:46;;;;;;;18.17;2.80;;;;;;;-142.75;100.00;77426.66;5050065;28;20159;-68
2022/02/15 05:35:11;;;;;;;12.38;3.80;;;;;;;-142.75;100.00;77428.63;5050797;28;20130;-68
2022/02/15 05:37:37;;;;;;;11.35;2.00;;;;;;;-142.75;100.00;77424.69;5050501;28;20060;-68
2022/02/15 05:40:05;;;;;;;11.63;2.13;;;;;;;-142.75;100.00;77426.66;5050394;28;20418;-68
2022/02/15 05:42:30;;;;;;;13.13;2.70;;;;;;;-142.75;100.00;77434.53;5050578;28;20528;-68
2022/02/15 05:44:56;;;;;;;13.13;2.20;;;;;;;-142.75;100.00;77442.41;5050491;28;20025;-67
2022/02/15 05:47:21;;;;;;;9.02;2.08;;;;;;;-142.75;100.00;77444.38;5050319;28;20100;-67
2022/02/15 05:52:31;;;;;;;9.63;2.30;;;;;;;-142.75;100.00;77450.28;5051361;28;20583;-67
2022/02/15 05:54:56;;;;;;;14.07;2.42;;;;;;;-142.75;100.00;77444.38;5050132;28;20104;-68
2022/02/15 05:57:21;;;;;;;10.32;1.90;;;;;;;-142.75;100.00;77446.34;5048911;28;20035;-68
2022/02/15 05:59:47;;;;;;;13.15;2.30;;;;;;;-142.75;100.00;77458.16;5049893;28;20030;-68
2022/02/15 06:02:12;;;;;;;13.73;2.88;;;;;;;-142.75;100.00;77460.13;5055707;28;20038;-68
2022/02/15 06:04:38;;;;;;;10.48;2.38;;;;;;;-142.75;100.00;77456.22;5069741;28;20048;-67
2022/02/15 06:07:05;;;;;;;17.33;2.57;;;;;;;-142.75;100.00;77464.09;5069294;28;20020;-68
2022/02/15 06:09:30;;;;;;;13.97;2.63;;;;;;;-142.75;100.00;77460.13;5069376;28;20024;-68
2022/02/15 06:11:56;;;;;;;14.57;2.92;;;;;;;-142.75;100.00;77462.13;5069891;28;20050;-68
2022/02/15 06:14:21;;;;;;;14.25;3.00;;;;;;;-142.75;100.00;77462.13;5068639;28;20107;-67
2022/02/15 06:16:46;;;;;;;21.20;3.67;;;;;;;-142.75;100.00;77468.03;5069754;28;20036;-67
2022/02/15 06:19:11;;;;;;;10.98;3.28;;;;;;;-142.75;100.00;77471.97;5068407;28;20028;-68
2022/02/15 06:21:37;;;;;;;11.85;2.38;;;;;;;-142.75;100.00;77475.91;5050122;28;20514;-68
2022/02/15 06:24:02;;;;;;;10.82;2.55;;;;;;;-142.75;100.00;77468.03;5048574;28;20544;-68
2022/02/15 06:26:27;;;;;;;11.20;2.78;;;;;;;-142.75;100.00;77462.13;5049312;28;20033;-68
2022/02/15 06:28:53;;;;;;;17.27;3.08;;;;;;;-142.75;100.00;77466.03;5056627;28;20052;-67
2022/02/15 06:31:18;;;;;;;11.17;3.50;;;;;;;-142.75;100.00;77468.03;5068835;28;20032;-67
2022/02/15 06:33:43;;;;;;;16.43;3.37;;;;;;;-142.75;100.00;77466.03;5068806;28;20841;-67
2022/02/15 06:36:09;;;;;;;17.40;3.43;;;;;;;-142.75;100.00;77475.91;5068918;28;20267;-68
2022/02/15 06:38:35;;;;;;;11.52;2.97;;;;;;;-142.75;100.00;77479.84;5068295;28;20267;-67
2022/02/15 06:41:00;;;;;;;11.43;3.38;;;;;;;-142.75;100.00;77475.91;5069534;28;20074;-68
2022/02/15 06:43:26;;;;;;;17.42;3.33;;;;;;;-142.75;100.00;77479.84;5069416;28;21871;-67
2022/02/15 06:45:51;;;;;;;7.72;2.70;;;;;;;-142.75;100.00;77493.63;5069559;28;20108;-68
2022/02/15 06:48:17;;;;;;;13.25;2.90;;;;;;;-142.75;100.00;77499.53;5069741;28;20051;-68
2022/02/15 06:50:42;;;;;;;9.55;3.42;;;;;;;-142.75;100.00;77511.34;5069953;28;20039;-68
2022/02/15 06:53:07;;;;;;;13.25;3.03;;;;;;;-142.75;100.00;77513.31;5070295;28;20029;-68
2022/02/15 06:55:33;;;;;;;10.00;3.03;;;;;;;-142.75;100.00;77525.13;5070082;28;20453;-68
2022/02/15 06:57:58;;;;;;;6.93;2.97;;;;;;;-142.75;100.00;77527.09;5069579;28;20270;-67
2022/02/15 07:00:23;;;;;;;10.97;2.83;;;;;;;-142.75;100.00;77531.03;5070159;28;20266;-67
2022/02/15 07:02:48;;;;;;;8.90;3.03;;;;;;;-142.75;100.00;77546.78;5071365;28;20373;-68
2022/02/15 07:05:14;;;;;;;13.98;3.00;;;;;;;-142.75;100.00;77550.72;5069746;28;20050;-68
2022/02/15 07:07:39;;;;;;;6.80;2.42;;;;;;;-142.75;100.00;77550.72;5069120;28;20040;-67
2022/02/15 07:10:05;;;;;;;14.85;2.72;;;;;;;-142.75;100.00;77562.53;5069041;28;20024;-68
2022/02/15 07:12:31;;;;;;;12.63;3.58;;;;;;;-142.75;100.00;77560.56;5070540;28;20074;-68
2022/02/15 07:14:56;;;;;;;11.35;3.40;;;;;;;-142.75;100.00;77570.41;5070720;28;20031;-68
2022/02/15 07:17:24;;;;;;;11.57;2.95;;;;;;;-142.75;100.00;77564.50;5070660;28;20021;-68
2022/02/15 07:19:49;;;;;;;12.00;2.63;;;;;;;-142.75;100.00;77562.53;5068618;28;20039;-68
2022/02/15 07:22:14;;;;;;;8.23;2.72;;;;;;;-142.75;100.00;77562.53;5070455;28;20029;-68
2022/02/15 07:24:41;;;;;;;12.43;3.07;;;;;;;-142.75;100.00;77570.41;5070559;28;20363;-67
2022/02/15 07:27:06;;;;;;;;;;;;;;;-142.75;100.00;77568.44;5070849;28;20559;-67
2022/02/15 07:29:31;;;;;;;14.23;3.40;;;;;;;-142.75;100.00;77566.47;5070534;28;19908;-67
2022/02/15 07:31:56;;;;;;;14.27;4.03;;;;;;;-142.75;100.00;77564.50;5070482;28;20115;-69
2022/02/15 07:34:21;;;;;;;15.40;3.07;;;;;;;-142.75;100.00;77562.53;5070328;28;20103;-68
2022/02/15 07:36:47;;;;;;;11.77;3.30;;;;;;;-142.75;100.00;77566.47;5070205;28;20664;-70
2022/02/15 07:39:12;;;;;;;13.57;2.78;;;;;;;-142.75;100.00;77562.53;5069957;28;20085;-68
2022/02/15 07:41:38;;;;;;;12.65;2.78;;;;;;;-142.75;100.00;77568.44;5070396;28;20025;-68
2022/02/15 07:44:03;;;;;;;11.70;2.70;;;;;;;-142.75;100.00;77562.53;5070442;28;20055;-68
2022/02/15 07:46:28;;;;;;;19.17;3.35;;;;;;;-142.75;100.00;77570.41;5069008;28;20035;-68
2022/02/15 07:48:54;;;;;;;12.43;4.10;;;;;;;-142.75;100.00;77572.38;5069787;28;20032;-68
2022/02/15 07:51:20;;;;;;;13.30;3.17;;;;;;;-142.75;100.00;77572.38;5070121;28;20286;-67
2022/02/15 07:53:45;;;;;;;13.60;3.70;;;;;;;-142.75;100.00;77564.50;5070289;28;20091;-68
2022/02/15 07:56:11;;;;;;;13.18;3.42;;;;;;;-142.75;100.00;77570.41;5071591;28;20039;-68
2022/02/15 07:58:37;;;;;;;16.40;4.22;;;;;;;-142.75;100.00;77556.63;5072334;28;20124;-68
2022/02/15 08:01:03;;;;;;;10.32;3.13;;;;;;;-142.75;100.00;77562.53;5072529;28;20104;-67
2022/02/15 08:03:28;;;;;;;11.65;2.42;;;;;;;-142.75;100.00;77568.44;5073731;28;20508;-67
2022/02/15 08:05:54;;;;;;;14.65;2.70;;;;;;;-142.75;100.00;77554.66;5073429;28;20522;-66
2022/02/15 08:08:19;;;;;;;14.00;3.05;;;;;;;-142.75;100.00;77546.78;5073293;28;20028;-68
2022/02/15 08:10:47;;;;;;;15.65;2.63;;;;;;;-142.75;100.00;77536.94;5073684;28;20028;-67
2022/02/15 08:13:18;;;;;;;12.67;2.40;;;;;;;-142.75;100.00;77533.00;5070694;28;20027;-67
2022/02/15 08:15:44;;;;;;;14.10;3.13;;;;;;;-142.75;100.00;77548.75;5042538;28;20621;-67
2022/02/15 08:18:09;;;;;;;15.23;2.20;;;;;;;-142.75;100.00;77538.91;5052639;28;20053;-68
2022/02/15 08:20:36;;;;;;;10.00;2.10;;;;;;;-142.75;100.00;77533.00;5052861;28;20052;-67
2022/02/15 08:23:01;;;;;;;12.47;2.10;;;;;;;-142.75;100.00;77538.91;5039972;28;20315;-68
2022/02/15 08:25:28;;;;;;;12.90;2.55;;;;;;;-142.75;100.00;77527.09;5033616;28;20498;-67
2022/02/15 08:27:53;;;;;;;14.43;2.30;;;;;;;-142.75;100.00;77505.44;5039789;28;20418;-67
2022/02/15 08:30:19;;;;;;;9.95;1.73;;;;;;;-142.75;100.00;77495.59;5043394;28;20390;-67
2022/02/15 08:32:44;;;;;;;9.00;2.15;;;;;;;-142.75;100.00;77481.81;5041729;28;20511;-68
2022/02/15 08:35:10;;;;;;;12.38;2.17;;;;;;;-142.75;100.00;77471.97;5043474;28;20027;-67
2022/02/15 08:37:36;;;;;;;16.55;2.95;;;;;;;-142.75;100.00;77416.81;5042605;28;20114;-68
2022/02/15 08:40:03;;;;;;;;;;;;;;;-142.75;100.00;77393.19;5042234;28;20033;-68
2022/02/15 08:42:28;;;;;;;9.20;2.42;;;;;;;-142.75;100.00;77387.28;5043454;28;19912;-67
2022/02/15 08:44:53;;;;;;;7.97;1.83;;;;;;;-142.75;100.00;77381.38;5042484;28;20391;-68
2022/02/15 08:47:21;;;;;;;10.87;1.80;;;;;;;-142.75;100.00;77355.78;5040679;28;20070;-67
2022/02/15 08:49:47;;;;;;;10.83;1.80;;;;;;;-142.75;100.00;77282.94;5032558;28;20272;-68
2022/02/15 08:52:12;;;;;;;7.75;1.63;;;;;;;-142.75;100.00;77223.88;5051721;28;20051;-68
2022/02/15 08:54:38;;;;;;;7.57;1.48;;;;;;;-142.75;100.00;77196.31;5051135;28;20024;-68
2022/02/15 08:57:04;;;;;;;10.75;1.30;;;;;;;-142.75;100.00;77145.13;5050726;28;20093;-68
2022/02/15 08:59:29;;;;;;;8.23;1.60;;;;;;;-142.75;100.00;77119.53;5051088;28;20029;-67
2022/02/15 09:01:55;;;;;;;14.20;1.95;;;;;;;-142.75;100.00;77084.09;5050960;28;20569;-68
2022/02/15 09:04:20;;;;;;;12.20;1.77;;;;;;;-142.75;100.00;77064.41;5050637;28;20036;-68
2022/02/15 09:06:45;;;;;;;11.02;1.42;;;;;;;-142.75;100.00;77068.34;5050540;28;20029;-68
2022/02/15 09:09:12;;;;;;;8.77;2.05;;;;;;;-142.75;100.00;77056.53;5049894;28;20037;-67
2022/02/15 09:11:38;;;;;;;8.20;1.23;;;;;;;-142.75;100.00;77015.19;5050491;28;20491;-68
2022/02/15 09:14:04;;;;;;;12.70;1.58;;;;;;;-142.75;100.00;77048.66;5050981;28;20013;-68
2022/02/15 09:16:30;;;;;;;;;;;;;;;-142.75;100.00;77072.28;5051160;28;20036;-69
2022/02/15 09:18:56;;;;;;;13.57;1.50;;;;;;;-142.75;100.00;77084.09;5049611;28;19923;-68
2022/02/15 09:21:21;;;;;;;10.48;1.60;;;;;;;-142.75;100.00;77137.25;5049533;28;20025;-68
2022/02/15 09:23:47;;;;;;;10.53;1.53;;;;;;;-142.75;100.00;77115.59;5050831;28;20560;-68
2022/02/15 09:26:12;;;;;;;8.23;1.35;;;;;;;-142.75;100.00;77117.56;5050677;28;20029;-67
2022/02/15 09:28:38;;;;;;;7.13;1.55;;;;;;;-142.75;100.00;77078.19;5050227;28;20037;-67
2022/02/15 09:31:05;;;;;;;8.23;2.22;;;;;;;-142.75;100.00;77042.75;5050349;28;20107;-67
2022/02/15 09:33:30;;;;;;;15.73;1.40;;;;;;;-142.75;100.00;77078.19;5050585;28;20062;-67
2022/02/15 09:35:56;;;;;;;6.93;1.35;;;;;;;-142.75;100.00;77042.75;5049960;28;20025;-67
2022/02/15 09:38:21;;;;;;;11.23;1.45;;;;;;;-142.75;100.00;77015.19;5049938;28;20116;-69
2022/02/15 09:40:48;;;;;;;10.88;1.67;;;;;;;-142.75;100.00;76964.00;5050399;28;20024;-67
2022/02/15 09:43:14;;;;;;;6.53;1.42;;;;;;;-142.75;100.00;76920.69;5060421;28;20078;-67
2022/02/15 09:45:41;;;;;;;9.65;1.52;;;;;;;-142.75;100.00;76897.06;5070077;28;20024;-69
2022/02/15 09:48:09;;;;;;;9.23;1.60;;;;;;;-142.75;100.00;76910.84;5069556;28;20253;-68
2022/02/15 09:50:35;;;;;;;9.48;1.50;;;;;;;-142.75;100.00;76877.38;5069693;28;20024;-68
2022/02/15 09:53:01;;;;;;;10.95;1.40;;;;;;;-142.75;100.00;76861.63;5049552;28;20016;-67
2022/02/15 09:55:27;;;;;;;7.35;1.25;;;;;;;-142.75;100.00;76853.75;5048902;28;20562;-68
2022/02/15 09:57:53;;;;;;;6.75;1.10;;;;;;;-142.75;100.00;76851.78;5049701;28;20079;-67
2022/02/15 10:00:21;;;;;;;6.50;1.52;;;;;;;-142.75;100.00;76820.28;5049855;28;20029;-68
2022/02/15 10:02:46;;;;;;;4.32;1.08;;;;;;;-142.75;100.00;76826.19;5050014;28;20052;-68
2022/02/15 10:05:15;;;;;;;6.25;1.35;;;;;;;-142.75;100.00;76820.28;5069366;28;20474;-68
2022/02/15 10:07:53;;;;;;;10.50;2.03;;;;;;;-142.75;100.00;76877.38;5060311;28;20090;-68
2022/02/15 10:10:32;;;;;;;8.85;1.42;;;;;;;-142.75;100.00;76879.34;5068845;28;20024;-68
2022/02/15 10:13:04;;;;;;;7.85;1.45;;;;;;;-142.75;100.00;76822.25;5069669;28;20025;-68
2022/02/15 10:15:39;;;;;;;12.75;2.10;;;;;;;-142.75;100.00;76853.75;5057036;28;20517;-68
2022/02/15 10:18:13;;;;;;;14.38;1.42;;;;;;;-142.75;100.00;76906.91;5048938;28;20028;-68
2022/02/15 10:20:45;;;;;;;13.15;2.10;;;;;;;-142.75;100.00;76964.00;5049286;28;20035;-68
2022/02/15 10:23:29;;;;;;;7.55;1.35;;;;;;;-142.75;100.00;76897.06;5049073;28;20523;-68
2022/02/15 10:25:56;;;;;;;8.70;1.52;;;;;;;-142.75;100.00;76865.56;5049454;28;20433;-68
2022/02/15 10:28:27;;;;;;;6.85;1.20;;;;;;;-142.75;100.00;76810.44;5049257;28;20048;-69
2022/02/15 10:30:54;;;;;;;9.80;2.42;;;;;;;-142.75;100.00;76924.63;5049656;28;20024;-68
2022/02/15 10:33:22;;;;;;;8.65;1.17;;;;;;;-142.75;100.00;76967.94;5049598;28;20028;-68
2022/02/15 10:35:57;;;;;;;10.52;1.25;;;;;;;-142.75;100.00;76889.19;5050405;28;20051;-69
2022/02/15 10:38:36;;;;;;;10.05;1.90;;;;;;;-142.75;100.00;77038.81;5048503;28;20159;-69
2022/02/15 10:41:05;;;;;;;7.88;1.45;;;;;;;-142.75;100.00;77044.72;5050380;28;20115;-68
2022/02/15 10:43:47;;;;;;;9.80;1.40;;;;;;;-142.75;100.00;77062.44;5049658;28;20040;-68
2022/02/15 10:46:19;;;;;;;10.02;1.83;;;;;;;-142.75;100.00;77056.53;5048952;28;20043;-68
2022/02/15 10:48:45;;;;;;;7.03;1.20;;;;;;;-142.75;100.00;77101.81;5048661;28;20024;-68
2022/02/15 10:51:12;;;;;;;7.60;1.40;;;;;;;-142.75;100.00;77158.91;5049433;28;20025;-68
2022/02/15 10:53:37;;;;;;;8.23;1.52;;;;;;;-142.75;100.00;77133.31;5049725;28;20028;-68
2022/02/15 10:56:04;;;;;;;6.28;1.13;;;;;;;-142.75;100.00;77133.31;5047892;28;20039;-68
2022/02/15 10:58:30;;;;;;;7.82;1.58;;;;;;;-142.75;100.00;77042.75;5048925;28;20033;-69
2022/02/15 11:00:58;;;;;;;9.05;1.50;;;;;;;-142.75;100.00;76932.50;5055379;28;20036;-68
2022/02/15 11:03:24;;;;;;;8.35;1.40;;;;;;;-142.75;100.00;76904.94;5068021;28;20497;-68
2022/02/15 11:05:50;;;;;;;7.35;1.27;;;;;;;-142.75;100.00;76912.81;5069077;28;20025;-67
2022/02/15 11:08:19;;;;;;;7.20;1.65;;;;;;;-142.75;100.00;76893.13;5067854;28;20043;-68